Time;durP1;ratioP1;P1;durP2;ratioP2;P2;SDS_P1;SDS_P2;PMS_P1;PMS_P2;Temp;Humidity;BMP_temperature;BMP_pressure;BME280_temperature;BME280_humidity;BME280_pressure;Samples;Min_cycle;Max_cycle;Signal;HPM_P1;HPM_P2
2022/05/02 00:00:00;;;;;;;8.50;4.30;;;8.40;97.70;;;;;;5058718;28;20102;-75
2022/05/02 00:02:25;;;;;;;7.18;4.85;;;8.40;97.70;;;;;;5058336;28;20483;-74
2022/05/02 00:04:52;;;;;;;8.27;4.70;;;8.40;97.80;;;;;;5058763;28;20088;-74
2022/05/02 00:07:18;;;;;;;8.63;4.43;;;8.40;97.60;;;;;;5058272;28;20106;-75
2022/05/02 00:09:44;;;;;;;6.25;4.35;;;8.30;97.50;;;;;;5072600;28;20048;-74
2022/05/02 00:12:10;;;;;;;8.45;4.60;;;8.30;97.60;;;;;;5075433;28;20083;-74
2022/05/02 00:14:36;;;;;;;7.20;4.22;;;8.40;97.60;;;;;;5075125;28;20056;-74
2022/05/02 00:17:01;;;;;;;10.98;4.80;;;8.30;97.60;;;;;;5058883;28;20052;-74
2022/05/02 00:19:27;;;;;;;8.90;4.70;;;8.20;97.50;;;;;;5075038;28;20051;-74
2022/05/02 00:21:53;;;;;;;7.25;4.65;;;8.10;97.50;;;;;;5074599;28;20128;-75
2022/05/02 00:24:18;;;;;;;8.27;5.15;;;8.10;97.60;;;;;;5074705;28;20059;-73
2022/05/02 00:26:44;;;;;;;7.45;4.90;;;8.00;97.60;;;;;;5074873;28;20048;-74
2022/05/02 00:29:10;;;;;;;7.00;4.57;;;8.10;97.60;;;;;;5058292;28;20054;-74
2022/05/02 00:31:35;;;;;;;8.75;4.75;;;8.10;97.60;;;;;;5074749;28;20045;-74
2022/05/02 00:34:01;;;;;;;9.10;5.53;;;8.00;97.50;;;;;;5074609;28;20049;-74
2022/05/02 00:36:27;;;;;;;7.35;5.15;;;8.00;97.70;;;;;;5074725;28;20044;-75
2022/05/02 00:38:52;;;;;;;7.95;5.20;;;8.00;97.60;;;;;;5074345;28;20075;-74
2022/05/02 00:41:19;;;;;;;10.23;5.10;;;8.00;97.60;;;;;;5074594;28;20430;-74
2022/05/02 00:43:45;;;;;;;9.38;5.30;;;8.10;97.70;;;;;;5074748;28;20051;-74
2022/05/02 00:46:22;;;;;;;8.98;5.70;;;8.10;97.60;;;;;;5074940;28;20044;-74
2022/05/02 00:48:48;;;;;;;7.82;4.85;;;8.00;97.60;;;;;;5074685;28;20484;-74
2022/05/02 00:51:14;;;;;;;9.13;5.20;;;8.00;97.50;;;;;;5074475;28;20098;-74
2022/05/02 00:53:41;;;;;;;10.88;5.35;;;7.90;97.50;;;;;;5074123;28;20048;-74
2022/05/02 00:56:08;;;;;;;8.25;5.07;;;7.90;97.50;;;;;;5074392;28;20102;-74
2022/05/02 00:58:37;;;;;;;10.20;5.45;;;7.90;97.50;;;;;;5074251;28;20041;-74
2022/05/02 01:01:04;;;;;;;9.13;5.20;;;7.90;97.60;;;;;;5074213;28;20471;-74
2022/05/02 01:03:31;;;;;;;9.20;5.65;;;7.90;97.60;;;;;;5074231;28;20052;-74
2022/05/02 01:08:42;;;;;;;9.90;5.55;;;7.80;97.50;;;;;;5073576;28;20083;-74
2022/05/02 01:11:08;;;;;;;9.40;4.95;;;7.80;97.60;;;;;;5073965;28;20060;-74
2022/05/02 01:13:37;;;;;;;8.52;5.20;;;7.70;97.50;;;;;;5073846;28;20479;-74
2022/05/02 01:16:25;;;;;;;8.02;4.93;;;7.70;97.70;;;;;;5073671;28;20426;-74
2022/05/02 01:18:53;;;;;;;12.55;5.55;;;7.70;97.70;;;;;;5073950;28;20079;-75
2022/05/02 01:21:26;;;;;;;11.43;5.20;;;7.70;97.80;;;;;;5073542;28;20051;-74
2022/05/02 01:24:01;;;;;;;8.18;5.88;;;7.70;97.80;;;;;;5073851;28;20364;-74
2022/05/02 01:26:28;;;;;;;9.95;5.35;;;7.70;97.80;;;;;;5073730;28;20073;-74
2022/05/02 01:28:57;;;;;;;7.60;5.07;;;7.70;97.80;;;;;;5073592;28;20041;-74
2022/05/02 01:31:23;;;;;;;9.52;5.50;;;7.80;97.80;;;;;;5056753;28;20056;-74
2022/05/02 01:33:51;;;;;;;8.32;5.32;;;7.70;97.80;;;;;;5056099;28;20040;-74
2022/05/02 01:36:18;;;;;;;9.25;5.50;;;7.80;97.80;;;;;;5073272;28;20405;-74
2022/05/02 01:38:44;;;;;;;8.60;5.50;;;7.80;97.70;;;;;;5073138;28;20059;-74
2022/05/02 01:41:10;;;;;;;11.23;5.75;;;7.80;97.70;;;;;;5073368;28;20518;-74
2022/05/02 01:43:37;;;;;;;9.68;5.80;;;7.80;97.80;;;;;;5073382;28;20049;-75
2022/05/02 01:46:05;;;;;;;11.27;5.90;;;7.80;97.70;;;;;;5040295;28;20048;-74
2022/05/02 01:48:31;;;;;;;7.43;5.18;;;7.70;97.60;;;;;;5073321;28;20126;-75
2022/05/02 01:50:59;;;;;;;7.85;5.07;;;7.70;97.60;;;;;;5073564;28;20106;-74
2022/05/02 01:53:26;;;;;;;7.90;5.57;;;7.60;97.60;;;;;;5072978;28;20071;-74
2022/05/02 01:55:52;;;;;;;11.55;6.53;;;7.60;97.60;;;;;;5073199;28;20110;-75
2022/05/02 01:58:18;;;;;;;7.43;5.20;;;7.60;97.70;;;;;;5056567;28;20475;-74
2022/05/02 02:00:44;;;;;;;8.88;5.50;;;7.50;97.60;;;;;;5073165;28;20052;-74
2022/05/02 02:03:10;;;;;;;9.07;5.22;;;7.40;97.40;;;;;;5073097;28;20129;-74
2022/05/02 02:05:48;;;;;;;10.57;5.82;;;7.40;97.60;;;;;;5073037;28;20463;-74
2022/05/02 02:08:25;;;;;;;9.88;5.57;;;7.30;97.60;;;;;;5072382;28;20053;-75
2022/05/02 02:10:54;;;;;;;9.35;5.72;;;7.30;97.60;;;;;;5056247;28;20040;-74
2022/05/02 02:13:19;;;;;;;7.85;5.75;;;7.20;97.80;;;;;;5072731;28;20086;-74
2022/05/02 02:15:46;;;;;;;8.15;5.50;;;7.20;97.80;;;;;;5056185;28;20429;-74
2022/05/02 02:18:12;;;;;;;9.68;6.03;;;7.30;97.60;;;;;;5072918;28;20056;-74
2022/05/02 02:20:41;;;;;;;10.18;6.45;;;7.20;97.70;;;;;;5072856;28;20040;-74
2022/05/02 02:23:07;;;;;;;11.68;6.55;;;7.10;97.70;;;;;;5072825;28;20101;-74
2022/05/02 02:25:33;;;;;;;10.93;6.10;;;7.20;97.80;;;;;;5072725;28;20040;-74
2022/05/02 02:28:02;;;;;;;12.20;6.30;;;7.20;97.80;;;;;;5072710;28;20044;-74
2022/05/02 02:30:29;;;;;;;9.75;5.95;;;7.20;97.70;;;;;;5073039;28;20518;-74
2022/05/02 02:32:58;;;;;;;10.85;6.22;;;7.20;97.60;;;;;;5072375;28;20385;-74
2022/05/02 02:35:25;;;;;;;9.68;6.25;;;7.20;97.70;;;;;;5072711;28;20101;-75
2022/05/02 02:37:51;;;;;;;8.80;6.50;;;7.20;97.50;;;;;;5072300;28;20063;-74
2022/05/02 02:40:17;;;;;;;8.85;5.88;;;7.10;97.60;;;;;;5072635;28;20054;-74
2022/05/02 02:42:42;;;;;;;9.00;5.75;;;7.10;97.60;;;;;;5072608;28;20049;-74
2022/05/02 02:45:09;;;;;;;10.80;6.40;;;7.00;97.60;;;;;;5072421;28;20044;-75
2022/05/02 02:47:35;;;;;;;12.00;6.28;;;6.90;97.60;;;;;;5072586;28;20059;-74
2022/05/02 02:50:01;;;;;;;10.05;6.28;;;6.90;97.80;;;;;;5072435;28;20059;-74
2022/05/02 02:52:27;;;;;;;11.45;6.47;;;7.00;97.70;;;;;;5072945;28;20036;-74
2022/05/02 02:54:52;;;;;;;11.18;6.35;;;6.90;97.60;;;;;;5072505;28;20052;-74
2022/05/02 02:57:18;;;;;;;10.38;6.18;;;6.90;97.70;;;;;;5039386;28;20041;-74
2022/05/02 02:59:44;;;;;;;10.80;6.82;;;7.00;97.60;;;;;;5072472;28;20048;-74
2022/05/02 03:02:10;;;;;;;11.73;6.88;;;6.90;97.60;;;;;;5072436;28;20503;-74
2022/05/02 03:07:24;;;;;;;10.40;6.43;;;6.90;97.50;;;;;;5072517;28;20140;-74
2022/05/02 03:09:50;;;;;;;9.13;6.18;;;6.90;97.60;;;;;;5071646;28;20135;-74
2022/05/02 03:12:15;;;;;;;11.77;6.80;;;6.90;97.50;;;;;;5072184;28;20143;-74
2022/05/02 03:14:41;;;;;;;11.43;6.32;;;6.80;97.60;;;;;;5072370;28;20048;-74
2022/05/02 03:17:07;;;;;;;10.88;7.22;;;6.80;97.60;;;;;;5055510;28;20395;-74
2022/05/02 03:19:33;;;;;;;10.40;6.97;;;6.80;97.60;;;;;;5072863;28;20072;-74
2022/05/02 03:21:58;;;;;;;10.07;6.85;;;6.80;97.70;;;;;;5071966;28;20047;-74
2022/05/02 03:24:24;;;;;;;11.07;6.78;;;6.80;97.70;;;;;;5072179;28;20056;-74
2022/05/02 03:26:49;;;;;;;12.30;6.80;;;6.70;97.70;;;;;;5072226;28;20048;-74
2022/05/02 03:29:15;;;;;;;11.27;7.45;;;6.80;97.70;;;;;;5072299;28;20056;-74
2022/05/02 03:31:41;;;;;;;10.50;6.72;;;6.80;97.60;;;;;;5072119;28;20048;-74
2022/05/02 03:34:06;;;;;;;12.05;6.78;;;6.90;97.70;;;;;;5071800;28;20132;-74
2022/05/02 03:36:32;;;;;;;11.00;7.13;;;6.90;97.60;;;;;;5072095;28;20044;-74
2022/05/02 03:38:58;;;;;;;9.15;6.35;;;6.80;97.80;;;;;;5071697;28;20048;-74
2022/05/02 03:41:23;;;;;;;10.20;6.50;;;6.80;97.70;;;;;;5072426;28;20048;-74
2022/05/02 03:43:49;;;;;;;10.48;6.93;;;6.80;97.50;;;;;;5072017;28;20040;-74
2022/05/02 03:46:15;;;;;;;10.00;6.65;;;6.70;97.60;;;;;;5072138;28;20254;-75
2022/05/02 03:48:40;;;;;;;8.95;6.45;;;6.80;97.70;;;;;;5072006;28;20059;-74
2022/05/02 03:51:07;;;;;;;11.95;7.45;;;6.80;97.60;;;;;;5072259;28;20057;-73
2022/05/02 03:53:32;;;;;;;11.90;7.78;;;6.80;97.60;;;;;;5055225;28;20084;-74
2022/05/02 03:55:58;;;;;;;11.25;6.85;;;6.70;97.60;;;;;;5073446;28;20079;-74
2022/05/02 03:58:24;;;;;;;10.23;6.88;;;6.70;97.60;;;;;;5075204;28;20041;-74
2022/05/02 04:00:49;;;;;;;12.50;7.65;;;6.70;97.70;;;;;;5075328;28;20132;-74
2022/05/02 04:03:15;;;;;;;11.63;7.38;;;6.70;97.70;;;;;;5076381;28;20076;-74
2022/05/02 04:05:41;;;;;;;10.38;7.95;;;6.70;97.80;;;;;;5075275;28;20468;-74
2022/05/02 04:08:07;;;;;;;11.15;7.82;;;6.70;97.90;;;;;;5074421;28;20056;-74
2022/05/02 04:10:32;;;;;;;12.88;8.30;;;6.70;97.80;;;;;;5075693;28;20078;-74
2022/05/02 04:12:58;;;;;;;11.82;8.60;;;6.80;97.80;;;;;;5075003;28;20131;-74
2022/05/02 04:15:24;;;;;;;11.95;7.93;;;6.70;97.70;;;;;;5058554;28;20503;-74
2022/05/02 04:17:49;;;;;;;11.25;8.00;;;6.70;97.80;;;;;;5058429;28;20387;-74
2022/05/02 04:20:15;;;;;;;11.07;7.55;;;6.80;97.80;;;;;;5075157;28;20053;-74
2022/05/02 04:22:41;;;;;;;16.13;8.25;;;6.70;97.80;;;;;;5075078;28;20364;-74
2022/05/02 04:25:07;;;;;;;12.07;8.00;;;6.70;97.90;;;;;;5074672;28;20083;-74
2022/05/02 04:27:34;;;;;;;16.40;8.73;;;6.80;97.90;;;;;;5074907;28;20045;-74
2022/05/02 04:30:00;;;;;;;13.02;8.05;;;6.80;97.90;;;;;;5074877;28;20044;-74
2022/05/02 04:32:26;;;;;;;14.30;8.10;;;6.90;98.00;;;;;;5074701;28;20517;-74
2022/05/02 04:34:56;;;;;;;13.48;8.10;;;6.90;98.00;;;;;;5074754;28;20052;-74
2022/05/02 04:37:22;;;;;;;12.90;8.50;;;6.90;98.00;;;;;;5074761;28;20053;-74
2022/05/02 04:39:47;;;;;;;15.48;10.23;;;7.00;98.00;;;;;;5074363;28;20047;-74
2022/05/02 04:42:13;;;;;;;17.65;10.98;;;7.10;98.10;;;;;;5074684;28;20049;-74
2022/05/02 04:44:39;;;;;;;14.27;8.98;;;7.30;98.20;;;;;;5074584;28;20044;-75
2022/05/02 04:47:05;;;;;;;13.02;8.48;;;7.40;98.00;;;;;;5074248;28;20044;-74
2022/05/02 04:49:31;;;;;;;15.88;9.68;;;7.40;97.90;;;;;;5075446;28;20083;-74
2022/05/02 04:51:56;;;;;;;13.18;9.00;;;7.40;98.00;;;;;;5057795;28;20087;-74
2022/05/02 04:54:22;;;;;;;18.63;10.13;;;7.60;98.40;;;;;;5074125;28;20446;-74
2022/05/02 04:56:48;;;;;;;15.68;10.27;;;7.70;98.20;;;;;;5074412;28;20078;-74
2022/05/02 04:59:13;;;;;;;14.82;8.95;;;7.90;98.40;;;;;;5074322;28;20444;-75
2022/05/02 05:01:39;;;;;;;16.88;10.45;;;8.00;98.40;;;;;;5074267;28;20388;-74
2022/05/02 05:04:05;;;;;;;12.98;9.18;;;8.10;98.40;;;;;;5074291;28;20507;-74
2022/05/02 05:06:30;;;;;;;15.63;9.20;;;8.20;98.40;;;;;;5073438;28;20399;-74
2022/05/02 05:08:56;;;;;;;14.43;9.50;;;8.30;98.30;;;;;;5072908;28;20057;-74
2022/05/02 05:11:36;;;;;;;12.30;7.93;;;8.30;98.10;;;;;;5074257;28;20048;-74
2022/05/02 05:17:08;;;;;;;12.43;8.45;;;8.40;98.30;;;;;;5074422;28;20056;-74
2022/05/02 05:19:45;;;;;;;12.48;8.15;;;8.50;98.30;;;;;;5073905;28;20055;-74
2022/05/02 05:22:22;;;;;;;13.55;8.80;;;8.60;98.30;;;;;;5073868;28;20056;-74
2022/05/02 05:25:02;;;;;;;11.23;7.38;;;8.60;98.60;;;;;;5074365;28;20052;-74
2022/05/02 05:27:27;;;;;;;12.57;8.13;;;8.60;99.20;;;;;;5074065;28;20048;-74
2022/05/02 05:30:05;;;;;;;11.68;7.78;;;8.70;99.40;;;;;;5073722;28;20429;-74
2022/05/02 05:32:40;;;;;;;15.70;9.90;;;8.70;99.60;;;;;;5073555;28;20470;-75
2022/05/02 05:35:08;;;;;;;15.65;10.23;;;8.80;99.60;;;;;;5073728;28;20052;-75
2022/05/02 05:37:56;;;;;;;14.27;9.88;;;9.10;99.80;;;;;;5073361;28;20483;-74
2022/05/02 05:40:30;;;;;;;14.60;9.05;;;9.40;99.70;;;;;;5073524;28;20132;-74
2022/05/02 05:43:01;;;;;;;16.65;10.70;;;9.30;99.70;;;;;;5056905;28;20049;-74
2022/05/02 05:45:36;;;;;;;13.80;9.68;;;9.30;99.90;;;;;;5073496;28;20482;-74
2022/05/02 05:48:14;;;;;;;20.40;11.13;;;9.40;99.90;;;;;;5073100;28;20442;-74
2022/05/02 05:50:49;;;;;;;14.07;9.73;;;9.40;99.90;;;;;;5073359;28;20078;-74
2022/05/02 05:53:36;;;;;;;17.25;12.07;;;9.60;99.90;;;;;;5056555;28;20102;-75
2022/05/02 05:56:27;;;;;;;19.55;12.73;;;9.80;99.90;;;;;;5073320;28;20052;-74
2022/05/02 05:59:05;;;;;;;22.20;12.82;;;10.00;99.90;;;;;;5073596;28;20399;-74
2022/05/02 06:01:56;;;;;;;21.00;14.75;;;10.10;99.90;;;;;;5073086;28;20052;-74
2022/05/02 06:04:25;;;;;;;22.77;14.10;;;10.10;99.90;;;;;;5073167;28;20088;-74
2022/05/02 06:06:50;;;;;;;24.75;15.00;;;10.30;99.90;;;;;;5073935;28;20044;-75
2022/05/02 06:09:17;;;;;;;20.83;13.15;;;10.40;99.90;;;;;;5072389;28;20064;-75
2022/05/02 06:11:47;;;;;;;22.98;15.95;;;10.60;99.90;;;;;;5072840;28;20056;-75
2022/05/02 06:14:14;;;;;;;22.95;14.60;;;10.60;99.90;;;;;;5072428;28;20392;-74
2022/05/02 06:19:27;;;;;;;29.15;16.13;;;10.60;99.90;;;;;;5072330;28;20052;-73
2022/05/02 06:21:55;;;;;;;30.20;15.68;;;10.60;99.90;;;;;;5072908;28;20053;-71
2022/05/02 06:24:25;;;;;;;23.15;14.00;;;10.50;99.90;;;;;;5073830;28;20056;-72
2022/05/02 06:26:52;;;;;;;23.05;13.93;;;10.50;99.90;;;;;;5073871;28;20049;-69
2022/05/02 06:29:22;;;;;;;25.10;14.45;;;10.60;99.90;;;;;;5073833;28;20048;-72
2022/05/02 06:31:54;;;;;;;25.65;14.65;;;10.70;99.90;;;;;;5073830;28;20047;-73
2022/05/02 06:34:26;;;;;;;19.15;11.65;;;10.80;99.90;;;;;;5072605;28;20142;-72
2022/05/02 06:37:13;;;;;;;18.35;11.80;;;10.80;99.90;;;;;;5072893;28;20064;-72
2022/05/02 06:39:56;;;;;;;18.85;11.60;;;10.60;99.90;;;;;;5073497;28;20373;-72
2022/05/02 06:42:29;;;;;;;17.83;10.80;;;10.70;99.90;;;;;;5072848;28;20060;-72
2022/05/02 06:45:19;;;;;;;18.52;11.15;;;10.80;99.90;;;;;;5072741;28;20379;-72
2022/05/02 06:48:03;;;;;;;16.83;10.35;;;10.90;99.90;;;;;;5072615;28;20106;-76
2022/05/02 06:50:32;;;;;;;16.15;10.63;;;10.90;99.90;;;;;;5072638;28;20053;-73
2022/05/02 06:53:23;;;;;;;16.80;10.63;;;11.00;99.90;;;;;;5072374;28;20048;-73
2022/05/02 06:56:07;;;;;;;13.50;10.15;;;11.20;99.90;;;;;;5073666;28;20087;-74
2022/05/02 06:58:38;;;;;;;15.68;10.95;;;11.30;99.90;;;;;;5055822;28;20060;-73
2022/05/02 07:01:10;;;;;;;16.30;11.43;;;11.30;99.90;;;;;;5073475;28;20052;-73
2022/05/02 07:03:56;;;;;;;19.30;11.23;;;11.30;99.90;;;;;;5072469;28;20056;-73
2022/05/02 07:06:43;;;;;;;16.80;9.75;;;11.30;99.90;;;;;;5072521;28;20052;-73
2022/05/02 07:09:16;;;;;;;24.27;11.07;;;11.40;99.90;;;;;;5071876;28;20053;-73
2022/05/02 07:12:11;;;;;;;16.83;10.60;;;11.60;99.90;;;;;;5073538;28;20047;-73
2022/05/02 07:14:56;;;;;;;17.15;11.35;;;11.60;99.90;;;;;;5072374;28;20076;-74
2022/05/02 07:17:40;;;;;;;16.15;10.32;;;11.80;99.90;;;;;;5041796;28;20515;-74
2022/05/02 07:20:09;;;;;;;14.32;10.35;;;11.90;99.90;;;;;;5075885;28;20041;-75
2022/05/02 07:22:37;;;;;;;16.92;10.60;;;12.10;99.60;;;;;;5078735;28;20045;-74
2022/05/02 07:25:12;;;;;;;17.05;10.98;;;12.20;99.30;;;;;;5072080;28;20098;-74
2022/05/02 07:27:59;;;;;;;14.98;10.32;;;12.30;99.40;;;;;;5073046;28;20036;-72
2022/05/02 07:30:25;;;;;;;18.90;11.23;;;12.30;99.30;;;;;;5072998;28;20048;-75
2022/05/02 07:32:53;;;;;;;16.48;10.73;;;12.40;99.10;;;;;;5075733;28;20053;-74
2022/05/02 07:35:21;;;;;;;17.42;10.75;;;12.30;98.70;;;;;;5075853;28;20045;-75
2022/05/02 07:37:47;;;;;;;14.98;10.38;;;12.20;99.10;;;;;;5076636;28;20478;-75
2022/05/02 07:40:20;;;;;;;17.20;10.70;;;12.30;99.10;;;;;;5075460;28;20383;-74
2022/05/02 07:42:47;;;;;;;14.23;9.70;;;12.40;98.80;;;;;;5058732;28;20123;-74
2022/05/02 07:45:17;;;;;;;14.00;8.80;;;12.50;98.50;;;;;;5075547;28;20537;-75
2022/05/02 07:47:45;;;;;;;14.50;8.55;;;12.60;98.00;;;;;;5075687;28;20544;-74
2022/05/02 07:50:12;;;;;;;17.50;8.38;;;12.80;98.20;;;;;;5059164;28;20053;-74
2022/05/02 07:52:41;;;;;;;14.05;8.55;;;12.90;98.30;;;;;;5075365;28;20127;-73
2022/05/02 07:55:09;;;;;;;15.20;8.65;;;12.80;97.60;;;;;;5075302;28;20051;-74
2022/05/02 07:57:38;;;;;;;16.48;8.98;;;12.90;97.80;;;;;;5075629;28;20578;-75
2022/05/02 08:00:07;;;;;;;11.57;8.13;;;13.00;97.80;;;;;;5078359;28;20137;-75
2022/05/02 08:02:34;;;;;;;13.82;8.10;;;12.80;97.50;;;;;;5075458;28;20503;-74
2022/05/02 08:05:00;;;;;;;11.82;7.68;;;13.00;97.50;;;;;;5075214;28;20045;-74
2022/05/02 08:07:41;;;;;;;13.05;8.32;;;13.10;97.30;;;;;;5075417;28;20521;-82
2022/05/02 08:10:39;;;;;;;13.93;7.63;;;13.00;96.80;;;;;;5058010;28;20416;-75
2022/05/02 08:13:24;;;;;;;13.13;7.68;;;13.00;97.30;;;;;;5075240;28;20471;-75
2022/05/02 08:16:03;;;;;;;12.05;7.15;;;13.30;97.00;;;;;;5074942;28;20083;-75
2022/05/02 08:18:38;;;;;;;12.10;7.82;;;13.50;97.20;;;;;;5075192;28;20048;-76
2022/05/02 08:21:14;;;;;;;13.40;7.30;;;13.80;97.10;;;;;;5075116;28;20052;-75
2022/05/02 08:27:21;;;;;;;13.32;7.20;;;13.80;96.80;;;;;;5075234;28;19982;-72
2022/05/02 08:29:59;;;;;;;10.05;7.10;;;13.60;96.50;;;;;;5074950;28;20063;-69
2022/05/02 08:32:55;;;;;;;15.68;8.18;;;13.90;96.90;;;;;;5076075;28;20041;-72
2022/05/02 08:35:37;;;;;;;12.43;7.43;;;14.00;96.60;;;;;;5074992;28;20075;-74
2022/05/02 08:38:02;;;;;;;14.63;7.97;;;13.70;96.50;;;;;;5074259;28;20051;-83
2022/05/02 08:40:48;;;;;;;10.05;7.20;;;13.80;96.70;;;;;;5074745;28;20048;-88
2022/05/02 08:43:15;;;;;;;17.45;9.10;;;13.80;96.70;;;;;;5058046;28;20106;-87
2022/05/02 08:45:56;;;;;;;15.88;8.10;;;13.70;96.90;;;;;;5075061;28;20499;-86
2022/05/02 08:49:32;;;;;;;17.05;8.27;;;13.90;96.50;;;;;;5074873;28;20045;-88
2022/05/02 08:51:55;;;;;;;13.38;8.65;;;14.00;96.50;;;;;;5074720;28;20048;-87
2022/05/02 08:54:58;;;;;;;12.35;7.85;;;13.90;96.10;;;;;;5057362;28;20051;-85
2022/05/02 08:57:54;;;;;;;15.98;8.05;;;14.00;96.40;;;;;;5075216;28;20400;-89
2022/05/02 09:00:32;;;;;;;14.10;8.48;;;14.20;96.40;;;;;;5074899;28;20479;-87
2022/05/02 09:03:35;;;;;;;14.50;8.75;;;14.30;96.40;;;;;;5075420;28;20453;-88
2022/05/02 09:06:19;;;;;;;13.52;7.68;;;14.60;96.50;;;;;;5076365;28;20044;-93
2022/05/02 09:09:40;;;;;;;15.07;8.68;;;14.40;95.70;;;;;;5074393;28;20059;-90
2022/05/02 09:12:20;;;;;;;13.85;7.70;;;14.50;96.10;;;;;;5057568;28;20135;-86
2022/05/02 09:14:58;;;;;;;16.98;8.00;;;14.60;95.80;;;;;;5040776;28;20063;-87
2022/05/02 09:17:48;;;;;;;11.70;8.00;;;14.50;95.60;;;;;;5057353;28;20620;-87
2022/05/02 09:20:24;;;;;;;17.33;7.43;;;14.50;95.00;;;;;;5041172;28;20439;-86
2022/05/02 09:23:35;;;;;;;11.38;6.68;;;14.50;95.20;;;;;;5057462;28;20059;-84
2022/05/02 09:26:03;;;;;;;11.02;7.63;;;14.60;94.50;;;;;;5029436;28;20056;-90
2022/05/02 09:28:35;;;;;;;14.02;6.88;;;14.90;95.00;;;;;;5057688;28;20369;-88
2022/05/02 09:31:39;;;;;;;13.05;7.32;;;15.10;95.40;;;;;;5057582;28;20052;-90
2022/05/02 09:34:18;;;;;;;13.55;7.05;;;15.40;95.40;;;;;;4976297;28;20048;-90
2022/05/02 09:36:47;;;;;;;11.48;7.07;;;15.30;94.80;;;;;;5057691;28;20049;-88
2022/05/02 09:39:35;;;;;;;13.70;7.25;;;15.10;94.50;;;;;;5040372;28;20051;-90
2022/05/02 09:42:07;;;;;;;12.98;7.35;;;15.20;94.80;;;;;;5057811;28;20494;-89
2022/05/02 09:51:05;;;;;;;14.00;7.00;;;15.60;94.40;;;;;;5057280;28;20056;-88
2022/05/02 09:53:36;;;;;;;13.05;7.50;;;15.90;94.60;;;;;;5010289;28;20068;-87
2022/05/02 09:56:43;;;;;;;13.68;6.53;;;16.10;94.30;;;;;;5057235;28;20048;-91
2022/05/02 09:59:18;;;;;;;10.52;6.72;;;16.20;94.50;;;;;;5044340;28;20103;-88
2022/05/02 10:01:49;;;;;;;10.65;7.07;;;16.10;93.80;;;;;;5058853;28;20052;-90
2022/05/02 10:04:53;;;;;;;9.85;6.57;;;16.00;94.00;;;;;;5057300;28;20056;-90
2022/05/02 10:07:23;;;;;;;14.10;7.57;;;16.00;94.50;;;;;;5057550;28;20467;-90
2022/05/02 10:09:58;;;;;;;14.85;7.10;;;16.50;94.90;;;;;;5061153;28;20087;-89
2022/05/02 10:12:40;;;;;;;8.95;6.55;;;16.30;93.60;;;;;;5057057;28;20441;-86
2022/05/02 10:15:24;;;;;;;15.43;7.57;;;16.20;93.60;;;;;;5073106;28;20135;-87
2022/05/02 10:17:53;;;;;;;14.50;6.80;;;16.20;94.10;;;;;;5073210;28;20048;-84
2022/05/02 10:20:20;;;;;;;20.00;6.55;;;16.20;93.60;;;;;;5072934;28;20080;-86
2022/05/02 10:23:15;;;;;;;14.60;6.72;;;16.20;94.20;;;;;;5072855;28;20048;-78
2022/05/02 10:25:49;;;;;;;13.40;7.38;;;16.80;93.70;;;;;;5073864;28;20045;-78
2022/05/02 10:28:44;;;;;;;11.05;6.75;;;17.30;94.20;;;;;;5072836;28;20056;-77
2022/05/02 10:31:19;;;;;;;10.77;6.45;;;17.50;93.40;;;;;;5072754;28;20434;-77
2022/05/02 10:33:53;;;;;;;12.02;5.97;;;17.60;93.60;;;;;;5073921;28;20407;-74
2022/05/02 10:36:22;;;;;;;9.57;5.85;;;18.30;93.60;;;;;;5073814;28;20127;-77
2022/05/02 10:38:55;;;;;;;9.60;5.45;;;18.60;93.00;;;;;;5072308;28;20074;-77
2022/05/02 10:41:30;;;;;;;12.10;7.35;;;18.80;93.50;;;;;;5073753;28;20052;-78
2022/05/02 10:44:04;;;;;;;9.48;6.28;;;18.70;93.40;;;;;;5073563;28;20044;-77
2022/05/02 10:46:31;;;;;;;10.00;6.43;;;18.30;93.20;;;;;;5058977;28;20053;-77
2022/05/02 10:49:32;;;;;;;10.50;7.07;;;18.10;93.60;;;;;;5074252;28;20110;-75
2022/05/02 10:52:25;;;;;;;12.95;6.72;;;18.10;93.30;;;;;;5072266;28;20058;-76
2022/05/02 10:55:07;;;;;;;15.45;7.10;;;17.60;93.10;;;;;;5072640;28;20055;-87
2022/05/02 10:57:40;;;;;;;13.55;6.43;;;17.60;93.20;;;;;;5056065;28;20131;-87
2022/05/02 11:00:12;;;;;;;9.80;6.78;;;17.40;93.30;;;;;;5055863;28;20048;-88
2022/05/02 11:03:06;;;;;;;11.15;6.53;;;17.00;93.20;;;;;;5072591;28;20071;-88
2022/05/02 11:05:44;;;;;;;10.20;6.45;;;16.90;92.70;;;;;;5075145;28;20138;-89
2022/05/02 11:08:12;;;;;;;9.43;5.35;;;17.30;93.20;;;;;;5071977;28;20044;-88
2022/05/02 11:10:58;;;;;;;10.45;5.75;;;17.40;92.80;;;;;;5076300;28;20091;-82
2022/05/02 11:13:29;;;;;;;8.60;4.20;;;17.40;92.50;;;;;;5079503;28;20410;-92
2022/05/02 11:16:12;;;;;;;7.45;4.45;;;17.20;91.20;;;;;;5077442;28;20048;-92
2022/05/02 11:22:01;;;;;;;10.60;5.47;;;17.70;92.50;;;;;;5077077;28;20077;-90
2022/05/02 11:24:56;;;;;;;10.32;5.60;;;18.00;92.40;;;;;;5059898;28;20047;-89
2022/05/02 11:27:37;;;;;;;8.00;5.72;;;17.70;91.90;;;;;;5076284;28;20052;-89
2022/05/02 11:30:07;;;;;;;7.18;4.93;;;17.70;92.60;;;;;;5059542;28;20386;-89
2022/05/02 11:32:50;;;;;;;9.20;5.85;;;17.70;92.20;;;;;;5076131;28;20044;-89
2022/05/02 11:35:28;;;;;;;10.65;5.90;;;18.00;92.40;;;;;;5076407;28;20442;-89
2022/05/02 11:37:55;;;;;;;10.25;5.80;;;18.40;92.00;;;;;;5076215;28;20059;-89
2022/05/02 11:40:30;;;;;;;8.02;5.68;;;18.60;92.10;;;;;;5075862;28;20055;-87
2022/05/02 11:42:57;;;;;;;9.73;6.25;;;18.60;92.50;;;;;;5076160;28;20090;-87
2022/05/02 11:45:55;;;;;;;9.45;5.80;;;18.70;91.70;;;;;;5076179;28;20044;-88
2022/05/02 11:48:20;;;;;;;10.70;5.60;;;18.40;91.70;;;;;;5043603;28;20457;-87
2022/05/02 11:50:48;;;;;;;12.95;5.75;;;18.10;91.80;;;;;;5075808;28;20123;-87
2022/05/02 11:53:17;;;;;;;10.00;6.38;;;18.10;92.30;;;;;;5075423;28;20037;-87
2022/05/02 11:55:46;;;;;;;9.57;5.95;;;18.20;91.60;;;;;;5076121;28;20041;-88
2022/05/02 11:58:34;;;;;;;13.90;6.78;;;18.30;92.70;;;;;;5075720;28;20044;-87
2022/05/02 12:01:09;;;;;;;9.52;6.15;;;18.50;91.90;;;;;;5048443;28;20057;-85
2022/05/02 12:03:47;;;;;;;9.38;5.70;;;18.70;92.10;;;;;;5075703;28;20051;-81
2022/05/02 12:06:16;;;;;;;10.65;5.40;;;18.30;92.10;;;;;;5075431;28;20045;-82
2022/05/02 12:08:46;;;;;;;13.20;5.43;;;17.90;92.40;;;;;;5075076;28;20490;-84
2022/05/02 12:11:14;;;;;;;9.52;4.70;;;17.70;92.50;;;;;;5074883;28;20048;-82
2022/05/02 12:13:44;;;;;;;10.27;5.65;;;18.10;92.60;;;;;;5075150;28;20137;-84
2022/05/02 12:16:10;;;;;;;13.32;5.57;;;18.40;92.20;;;;;;5075098;28;20044;-88
2022/05/02 12:18:45;;;;;;;9.18;5.63;;;18.50;92.20;;;;;;5058814;28;20054;-82
2022/05/02 12:21:22;;;;;;;7.32;5.40;;;18.60;92.40;;;;;;5075168;28;20560;-86
2022/05/02 12:23:49;;;;;;;9.73;5.65;;;18.20;91.70;;;;;;5075975;28;20185;-86
2022/05/02 12:26:20;;;;;;;9.98;5.07;;;18.20;92.30;;;;;;5075569;28;20392;-85
2022/05/02 12:28:51;;;;;;;6.93;4.93;;;18.70;91.90;;;;;;5075792;28;20418;-84
2022/05/02 12:31:27;;;;;;;8.07;5.25;;;19.10;92.00;;;;;;5075525;28;20036;-73
2022/05/02 12:34:06;;;;;;;7.93;5.15;;;19.20;91.70;;;;;;5074628;28;20040;-73
2022/05/02 12:36:56;;;;;;;9.20;5.00;;;19.40;91.90;;;;;;5075822;28;20053;-73
2022/05/02 12:39:26;;;;;;;8.68;4.70;;;19.60;91.70;;;;;;5075806;28;20040;-73
2022/05/02 12:42:18;;;;;;;6.35;3.97;;;19.90;91.50;;;;;;5074751;28;20158;-73
2022/05/02 12:44:46;;;;;;;9.88;4.53;;;20.70;91.50;;;;;;5074910;28;20055;-73
2022/05/02 12:47:49;;;;;;;8.65;4.40;;;20.20;91.30;;;;;;5075569;28;20044;-74
2022/05/02 12:50:25;;;;;;;7.95;4.93;;;20.20;91.40;;;;;;5073286;28;20068;-76
2022/05/02 12:52:54;;;;;;;8.00;3.97;;;20.50;91.20;;;;;;5074489;28;20055;-76
2022/05/02 12:55:38;;;;;;;6.63;5.25;;;21.10;91.60;;;;;;5075146;28;20502;-76
2022/05/02 13:00:52;;;;;;;7.90;4.68;;;22.40;92.10;;;;;;5074497;28;20052;-76
2022/05/02 13:03:23;;;;;;;9.30;4.97;;;22.30;91.50;;;;;;5075059;28;20476;-76
2022/05/02 13:06:10;;;;;;;6.50;4.80;;;22.40;91.50;;;;;;5075698;28;20052;-76
2022/05/02 13:08:43;;;;;;;11.88;5.57;;;22.60;91.70;;;;;;5057402;28;20056;-76
2022/05/02 13:11:19;;;;;;;6.90;5.15;;;22.80;91.50;;;;;;5073777;28;20049;-76
2022/05/02 13:13:47;;;;;;;;;;;22.60;91.40;;;;;;5074490;28;20045;-69
2022/05/02 13:16:17;;;;;;;11.75;4.22;;;22.80;91.10;;;;;;5075046;28;20014;-75
2022/05/02 13:18:46;;;;;;;6.43;4.32;;;22.80;91.40;;;;;;5074976;28;20044;-74
2022/05/02 13:21:12;;;;;;;13.18;5.03;;;22.60;91.50;;;;;;5074069;28;20041;-75
2022/05/02 13:23:43;;;;;;;10.70;5.20;;;22.00;91.50;;;;;;5073962;28;20055;-74
2022/05/02 13:26:11;;;;;;;8.65;4.70;;;21.80;91.50;;;;;;5073886;28;20064;-79
2022/05/02 13:29:15;;;;;;;8.23;4.90;;;21.90;91.40;;;;;;5072811;28;20052;-79
2022/05/02 13:31:57;;;;;;;8.35;5.20;;;21.80;91.30;;;;;;5073628;28;20117;-79
2022/05/02 13:34:40;;;;;;;8.80;5.60;;;20.80;91.60;;;;;;5073746;28;20467;-79
2022/05/02 13:37:33;;;;;;;8.65;5.38;;;20.70;91.50;;;;;;5073208;28;20048;-76
2022/05/02 13:39:58;;;;;;;7.90;5.50;;;20.90;91.60;;;;;;5073104;28;20106;-75